Time;durP1;ratioP1;P1;durP2;ratioP2;P2;SDS_P1;SDS_P2;PMS_P1;PMS_P2;Temp;Humidity;BMP_temperature;BMP_pressure;BME280_temperature;BME280_humidity;BME280_pressure;Samples;Min_cycle;Max_cycle;Signal;HPM_P1;HPM_P2
2022/04/22 00:02:15;;;;;;;;;;;15.40;54.80;;;;;;5103436;28;19959;-67
2022/04/22 00:04:40;;;;;;;;;;;15.40;54.80;;;;;;5103355;28;19904;-66
2022/04/22 00:07:06;;;;;;;;;;;15.40;54.80;;;;;;5103320;28;19904;-67
2022/04/22 00:09:31;;;;;;;;;;;15.40;54.80;;;;;;5101932;28;19900;-67
2022/04/22 00:11:57;;;;;;;;;;;15.40;54.80;;;;;;5103275;28;19907;-67
2022/04/22 00:14:22;;;;;;;;;;;15.30;54.80;;;;;;5103224;28;19908;-68
2022/04/22 00:16:48;;;;;;;;;;;15.40;54.80;;;;;;5103134;28;20085;-66
2022/04/22 00:19:14;;;;;;;;;;;15.40;54.80;;;;;;5103139;28;20247;-67
2022/04/22 00:21:41;;;;;;;;;;;15.30;54.70;;;;;;5103057;28;20156;-67
2022/04/22 00:24:07;;;;;;;;;;;15.30;54.80;;;;;;5103030;28;19908;-67
2022/04/22 00:26:33;;;;;;;;;;;15.30;54.80;;;;;;5102785;28;19990;-66
2022/04/22 00:28:58;;;;;;;;;;;15.30;54.80;;;;;;5102926;28;19908;-66
2022/04/22 00:31:24;;;;;;;;;;;15.30;54.80;;;;;;5103220;28;19915;-67
2022/04/22 00:33:50;;;;;;;;;;;15.30;54.80;;;;;;5102858;28;19915;-67
2022/04/22 00:36:15;;;;;;;;;;;15.40;54.80;;;;;;5102886;28;20184;-67
2022/04/22 00:38:41;;;;;;;;;;;15.30;54.80;;;;;;5102787;28;19957;-67
2022/04/22 00:41:06;;;;;;;;;;;15.30;54.70;;;;;;5102745;28;20241;-66
2022/04/22 00:43:42;;;;;;;;;;;15.30;54.70;;;;;;5102658;28;19907;-67
2022/04/22 00:46:07;;;;;;;;;;;15.30;54.80;;;;;;5102536;28;19908;-67
2022/04/22 00:48:33;;;;;;;;;;;15.30;54.80;;;;;;5102641;28;19915;-67
2022/04/22 00:50:59;;;;;;;;;;;15.30;54.80;;;;;;5102510;28;19908;-67
2022/04/22 00:53:25;;;;;;;;;;;15.30;54.70;;;;;;5102578;28;19947;-66
2022/04/22 00:55:50;;;;;;;;;;;15.30;54.80;;;;;;5101778;28;19938;-66
2022/04/22 00:58:16;;;;;;;;;;;15.30;54.70;;;;;;5102240;28;19919;-67
2022/04/22 01:00:41;;;;;;;;;;;15.30;54.70;;;;;;5102309;28;20215;-66
2022/04/22 01:03:07;;;;;;;;;;;15.30;54.70;;;;;;5102366;28;19908;-68
2022/04/22 01:11:02;;;;;;;;;;;15.30;54.60;;;;;;5102092;28;19954;-67
2022/04/22 01:13:27;;;;;;;;;;;15.30;54.60;;;;;;5102135;28;20195;-67
2022/04/22 01:15:53;;;;;;;;;;;15.30;54.70;;;;;;5102118;28;19939;-67
2022/04/22 01:18:19;;;;;;;;;;;15.30;54.70;;;;;;5101972;28;20281;-67
2022/04/22 01:20:44;;;;;;;;;;;15.30;54.70;;;;;;5102050;28;20138;-66
2022/04/22 01:23:10;;;;;;;;;;;15.30;54.70;;;;;;5101919;28;19907;-67
2022/04/22 01:25:35;;;;;;;;;;;15.30;54.60;;;;;;5101926;28;19900;-67
2022/04/22 01:28:01;;;;;;;;;;;15.30;54.60;;;;;;5101642;28;19911;-66
2022/04/22 01:30:27;;;;;;;;;;;15.30;54.60;;;;;;5101801;28;19900;-67
2022/04/22 01:32:54;;;;;;;;;;;15.30;54.70;;;;;;5101701;28;19987;-67
2022/04/22 01:35:20;;;;;;;;;;;15.30;54.80;;;;;;5101603;28;19911;-66
2022/04/22 01:37:46;;;;;;;;;;;15.30;54.70;;;;;;5101708;28;20095;-66
2022/04/22 01:40:12;;;;;;;;;;;15.30;54.70;;;;;;5101525;28;19900;-66
2022/04/22 01:42:37;;;;;;;;;;;15.30;54.80;;;;;;5100249;28;20111;-67
2022/04/22 01:45:04;;;;;;;;;;;15.20;54.70;;;;;;5101489;28;19919;-67
2022/04/22 01:47:30;;;;;;;;;;;15.30;54.70;;;;;;5101275;28;20085;-67
2022/04/22 01:49:55;;;;;;;;;;;15.30;54.70;;;;;;5101432;28;19930;-67
2022/04/22 01:52:21;;;;;;;;;;;15.30;54.70;;;;;;5101322;28;19935;-66
2022/04/22 01:54:50;;;;;;;;;;;15.30;54.70;;;;;;5101273;28;19907;-67
2022/04/22 01:57:15;;;;;;;;;;;15.30;54.70;;;;;;5101111;28;20169;-66
2022/04/22 01:59:44;;;;;;;;;;;15.30;54.60;;;;;;5101184;28;19900;-66
2022/04/22 02:02:10;;;;;;;;;;;15.30;54.60;;;;;;5101063;28;19908;-67
2022/04/22 02:04:35;;;;;;;;;;;15.20;54.70;;;;;;5101076;28;19907;-66
2022/04/22 02:07:01;;;;;;;;;;;15.20;54.70;;;;;;5099992;28;19904;-66
2022/04/22 02:09:27;;;;;;;;;;;15.30;54.70;;;;;;5101049;28;19955;-65
2022/04/22 02:11:53;;;;;;;;;;;15.20;54.60;;;;;;5101017;28;19908;-66
2022/04/22 02:14:19;;;;;;;;;;;15.20;54.60;;;;;;5100904;28;19915;-67
2022/04/22 02:16:44;;;;;;;;;;;15.20;54.70;;;;;;5100927;28;19908;-67
2022/04/22 02:19:10;;;;;;;;;;;15.20;54.60;;;;;;5100805;28;20188;-66
2022/04/22 02:21:35;;;;;;;;;;;15.20;54.60;;;;;;5100772;28;19900;-66
2022/04/22 02:24:01;;;;;;;;;;;15.20;54.60;;;;;;5100700;28;19942;-67
2022/04/22 02:26:27;;;;;;;;;;;15.20;54.70;;;;;;5100718;28;19904;-67
2022/04/22 02:28:52;;;;;;;;;;;15.20;54.60;;;;;;5100607;28;19907;-67
2022/04/22 02:31:18;;;;;;;;;;;15.20;54.60;;;;;;5100646;28;19908;-67
2022/04/22 02:33:44;;;;;;;;;;;15.20;54.60;;;;;;5100585;28;19908;-66
2022/04/22 02:36:10;;;;;;;;;;;15.20;54.70;;;;;;5100557;28;19987;-67
2022/04/22 02:38:36;;;;;;;;;;;15.20;54.70;;;;;;5100454;28;20087;-67
2022/04/22 02:46:31;;;;;;;;;;;15.20;54.60;;;;;;5100227;28;19911;-66
2022/04/22 02:48:58;;;;;;;;;;;15.20;54.60;;;;;;5100353;28;19900;-67
2022/04/22 02:51:24;;;;;;;;;;;15.20;54.50;;;;;;5100331;28;19908;-67
2022/04/22 02:53:49;;;;;;;;;;;15.20;54.60;;;;;;5100240;28;19908;-66
2022/04/22 02:56:16;;;;;;;;;;;15.20;54.60;;;;;;5100345;28;19900;-67
2022/04/22 02:58:42;;;;;;;;;;;15.20;54.70;;;;;;5100107;28;19978;-66
2022/04/22 03:01:07;;;;;;;;;;;15.20;54.60;;;;;;5100249;28;19950;-67
2022/04/22 03:03:33;;;;;;;;;;;15.20;54.60;;;;;;5100192;28;20290;-67
2022/04/22 03:05:58;;;;;;;;;;;15.20;54.60;;;;;;5100062;28;20158;-66
2022/04/22 03:08:24;;;;;;;;;;;15.20;54.60;;;;;;5098807;28;19908;-67
2022/04/22 03:10:50;;;;;;;;;;;15.20;54.50;;;;;;5100090;28;19900;-67
2022/04/22 03:13:16;;;;;;;;;;;15.20;54.50;;;;;;5100128;28;19966;-68
2022/04/22 03:15:41;;;;;;;;;;;15.20;54.60;;;;;;5100003;28;19900;-67
2022/04/22 03:18:07;;;;;;;;;;;15.20;54.60;;;;;;5102028;28;19906;-66
2022/04/22 03:20:33;;;;;;;;;;;15.20;54.70;;;;;;5104149;28;19974;-66
2022/04/22 03:22:58;;;;;;;;;;;15.20;54.70;;;;;;5104104;28;20276;-66
2022/04/22 03:25:24;;;;;;;;;;;15.20;54.60;;;;;;5104034;28;20199;-67
2022/04/22 03:27:51;;;;;;;;;;;15.20;54.60;;;;;;5103902;28;19911;-67
2022/04/22 03:30:17;;;;;;;;;;;15.20;54.50;;;;;;5103958;28;19979;-66
2022/04/22 03:32:42;;;;;;;;;;;15.20;54.60;;;;;;5103784;28;19931;-66
2022/04/22 03:35:08;;;;;;;;;;;15.20;54.60;;;;;;5103861;28;19915;-67
2022/04/22 03:37:34;;;;;;;;;;;15.20;54.70;;;;;;5104367;28;19908;-67
2022/04/22 03:40:00;;;;;;;;;;;15.20;54.60;;;;;;5103626;28;19915;-67
2022/04/22 03:42:25;;;;;;;;;;;15.20;54.60;;;;;;5103722;28;19904;-67
2022/04/22 03:44:51;;;;;;;;;;;15.20;54.60;;;;;;5103585;28;19975;-67
2022/04/22 03:47:16;;;;;;;;;;;15.20;54.60;;;;;;5103615;28;20227;-66
2022/04/22 03:49:42;;;;;;;;;;;15.20;54.60;;;;;;5103579;28;20197;-67
2022/04/22 03:52:08;;;;;;;;;;;15.20;54.60;;;;;;5103457;28;19949;-67
2022/04/22 03:54:33;;;;;;;;;;;15.20;54.60;;;;;;5103358;28;19908;-66
2022/04/22 03:59:43;;;;;;;;;;;15.10;54.50;;;;;;5103430;28;19947;-66
2022/04/22 04:02:09;;;;;;;;;;;15.10;54.60;;;;;;5102000;28;19947;-67
2022/04/22 04:04:34;;;;;;;;;;;15.10;54.60;;;;;;5102917;28;19915;-67
2022/04/22 04:07:00;;;;;;;;;;;15.10;54.60;;;;;;5103143;28;19904;-67
2022/04/22 04:17:41;;;;;;;;;;;15.20;54.60;;;;;;5103027;28;19993;-66
2022/04/22 04:25:35;;;;;;;;;;;15.10;54.50;;;;;;5102877;28;19969;-67
2022/04/22 04:28:02;;;;;;;;;;;15.10;54.50;;;;;;5102787;28;20130;-67
2022/04/22 04:30:27;;;;;;;;;;;15.10;54.50;;;;;;5101565;28;19908;-67
2022/04/22 04:32:53;;;;;;;;;;;15.10;54.50;;;;;;5102692;28;20128;-67
2022/04/22 04:35:18;;;;;;;;;;;15.10;54.50;;;;;;5102595;28;20123;-67
2022/04/22 04:37:44;;;;;;;;;;;15.10;54.50;;;;;;5102934;28;19908;-67
2022/04/22 04:40:10;;;;;;;;;;;15.10;54.50;;;;;;5102522;28;19946;-67
2022/04/22 04:42:35;;;;;;;;;;;15.20;54.50;;;;;;5102581;28;20018;-66
2022/04/22 04:45:01;;;;;;;;;;;15.10;54.40;;;;;;5102473;28;19932;-67
2022/04/22 04:47:26;;;;;;;;;;;15.10;54.40;;;;;;5102437;28;19925;-67
2022/04/22 04:49:52;;;;;;;;;;;15.20;54.40;;;;;;5102431;28;19908;-66
2022/04/22 04:52:18;;;;;;;;;;;15.10;54.40;;;;;;5102389;28;19908;-66
2022/04/22 04:54:43;;;;;;;;;;;15.10;54.40;;;;;;5102327;28;19915;-66
2022/04/22 04:57:09;;;;;;;;;;;15.10;54.50;;;;;;5102057;28;19916;-67
2022/04/22 04:59:35;;;;;;;;;;;15.10;54.50;;;;;;5102224;28;20092;-67
2022/04/22 05:02:01;;;;;;;;;;;15.10;54.50;;;;;;5102131;28;19904;-66
2022/04/22 05:04:26;;;;;;;;;;;15.10;54.50;;;;;;5102051;28;19931;-66
2022/04/22 05:06:52;;;;;;;;;;;15.20;54.50;;;;;;5101944;28;19912;-67
2022/04/22 05:09:17;;;;;;;;;;;15.10;54.40;;;;;;5101870;28;19908;-67
2022/04/22 05:11:43;;;;;;;;;;;15.20;54.40;;;;;;5101960;28;19908;-66
2022/04/22 05:14:08;;;;;;;;;;;15.10;54.40;;;;;;5101858;28;19908;-67
2022/04/22 05:16:34;;;;;;;;;;;15.10;54.40;;;;;;5101853;28;19953;-67
2022/04/22 05:18:59;;;;;;;;;;;15.10;54.50;;;;;;5101747;28;19943;-67
2022/04/22 05:21:25;;;;;;;;;;;15.10;54.50;;;;;;5101804;28;19945;-66
2022/04/22 05:23:50;;;;;;;;;;;15.10;54.50;;;;;;5101651;28;19900;-66
2022/04/22 05:26:16;;;;;;;;;;;15.10;54.50;;;;;;5101598;28;19907;-66
2022/04/22 05:28:42;;;;;;;;;;;15.10;54.50;;;;;;5101579;28;19935;-67
2022/04/22 05:33:51;;;;;;;;;;;15.10;54.50;;;;;;5101493;28;19907;-67
2022/04/22 05:36:18;;;;;;;;;;;15.10;54.40;;;;;;5101443;28;19980;-66
2022/04/22 05:38:44;;;;;;;;;;;15.10;54.40;;;;;;5101440;28;20137;-67
2022/04/22 05:41:10;;;;;;;;;;;15.10;54.40;;;;;;5101301;28;19911;-66
2022/04/22 05:43:37;;;;;;;;;;;15.10;54.40;;;;;;5101397;28;20092;-66
2022/04/22 05:46:02;;;;;;;;;;;15.10;54.50;;;;;;5101667;28;19995;-66
2022/04/22 05:48:28;;;;;;;;;;;15.10;54.50;;;;;;5101219;28;20139;-67
2022/04/22 05:50:54;;;;;;;;;;;15.10;54.50;;;;;;5101215;28;20196;-67
2022/04/22 05:53:19;;;;;;;;;;;15.10;54.40;;;;;;5101011;28;19934;-67
2022/04/22 05:55:46;;;;;;;;;;;15.10;54.50;;;;;;5101148;28;19974;-66
2022/04/22 05:58:11;;;;;;;;;;;15.10;54.50;;;;;;5100883;28;19985;-67
2022/04/22 06:00:37;;;;;;;;;;;15.10;54.50;;;;;;5101043;28;20100;-66
2022/04/22 06:03:02;;;;;;;;;;;15.10;54.40;;;;;;5100815;28;19983;-67
2022/04/22 06:05:28;;;;;;;;;;;15.10;54.50;;;;;;5100962;28;19908;-66
2022/04/22 06:10:39;;;;;;;;;;;15.10;54.50;;;;;;5100829;28;19950;-66
2022/04/22 06:13:05;;;;;;;;;;;15.10;54.50;;;;;;5100821;28;20154;-65
2022/04/22 06:15:31;;;;;;;;;;;15.10;54.40;;;;;;5100779;28;19900;-67
2022/04/22 06:17:57;;;;;;;;;;;15.10;54.40;;;;;;5100662;28;19907;-66
2022/04/22 06:20:23;;;;;;;;;;;15.10;54.40;;;;;;5100704;28;19961;-67
2022/04/22 06:22:49;;;;;;;;;;;15.00;54.40;;;;;;5100555;28;20365;-66
2022/04/22 06:25:18;;;;;;;;;;;15.10;54.40;;;;;;5099311;28;19915;-67
2022/04/22 06:27:44;;;;;;;;;;;15.10;54.40;;;;;;5100519;28;19911;-66
2022/04/22 06:30:14;;;;;;;;;;;15.10;54.40;;;;;;5100471;28;19908;-67
2022/04/22 06:32:40;;;;;;;;;;;15.00;54.50;;;;;;5100425;28;19916;-67
2022/04/22 06:35:06;;;;;;;;;;;15.10;54.40;;;;;;5100421;28;19932;-66
2022/04/22 06:37:36;;;;;;;;;;;15.00;54.40;;;;;;5100298;28;19900;-66
2022/04/22 06:45:46;;;;;;;;;;;15.10;54.50;;;;;;5100287;28;19919;-67
2022/04/22 06:48:15;;;;;;;;;;;15.10;54.50;;;;;;5100210;28;20192;-66
2022/04/22 06:50:42;;;;;;;;;;;15.10;54.50;;;;;;5100170;28;19900;-66
2022/04/22 06:53:08;;;;;;;;;;;15.00;54.50;;;;;;5099509;28;19911;-67
2022/04/22 06:55:34;;;;;;;;;;;15.00;54.40;;;;;;5100165;28;20196;-67
2022/04/22 06:58:00;;;;;;;;;;;15.00;54.50;;;;;;5099988;28;19979;-66
2022/04/22 07:00:26;;;;;;;;;;;15.10;54.50;;;;;;5100154;28;19907;-68
2022/04/22 07:02:52;;;;;;;;;;;15.00;54.50;;;;;;5100010;28;19900;-68
2022/04/22 07:05:18;;;;;;;;;;;15.00;54.50;;;;;;5100022;28;19908;-67
2022/04/22 07:07:44;;;;;;;;;;;15.00;54.50;;;;;;5099959;28;19912;-66
2022/04/22 07:10:10;;;;;;;;;;;15.00;54.40;;;;;;5099927;28;19989;-65
2022/04/22 07:12:36;;;;;;;;;;;15.00;54.50;;;;;;5100041;28;19904;-66
2022/04/22 07:15:04;;;;;;;;;;;15.00;54.50;;;;;;5099851;28;19959;-67
2022/04/22 07:17:30;;;;;;;;;;;15.00;54.50;;;;;;5099928;28;19907;-67
2022/04/22 07:19:56;;;;;;;;;;;15.00;54.50;;;;;;5099978;28;19904;-67
2022/04/22 07:22:21;;;;;;;;;;;15.00;54.50;;;;;;5099840;28;19971;-67
2022/04/22 07:24:47;;;;;;;;;;;15.00;54.50;;;;;;5099919;28;20254;-67
2022/04/22 07:27:14;;;;;;;;;;;15.00;54.40;;;;;;5099842;28;19912;-66
2022/04/22 07:29:41;;;;;;;;;;;15.00;54.50;;;;;;5099798;28;19960;-66
2022/04/22 07:32:07;;;;;;;;;;;15.00;54.50;;;;;;5099843;28;19927;-67
2022/04/22 07:34:33;;;;;;;;;;;15.00;54.50;;;;;;5099812;28;19908;-66
2022/04/22 07:37:00;;;;;;;;;;;15.00;54.50;;;;;;5099832;28;20227;-67
2022/04/22 07:39:25;;;;;;;;;;;15.00;54.40;;;;;;5099725;28;20251;-66
2022/04/22 07:41:51;;;;;;;;;;;15.00;54.40;;;;;;5099694;28;19922;-66
2022/04/22 07:47:08;;;;;;;;;;;15.00;54.40;;;;;;5099604;28;20285;-66
2022/04/22 07:49:34;;;;;;;;;;;15.00;54.40;;;;;;5099782;28;19994;-67
2022/04/22 07:51:59;;;;;;;;;;;15.00;54.50;;;;;;5099668;28;19954;-67
2022/04/22 07:54:25;;;;;;;;;;;15.00;54.40;;;;;;5099632;28;20073;-67
2022/04/22 07:56:52;;;;;;;;;;;15.00;54.40;;;;;;5099447;28;19900;-66
2022/04/22 07:59:17;;;;;;;;;;;15.00;54.40;;;;;;5099632;28;19923;-67
2022/04/22 08:01:43;;;;;;;;;;;15.00;54.50;;;;;;5099603;28;19939;-66
2022/04/22 08:04:10;;;;;;;;;;;15.00;54.50;;;;;;5101396;28;19908;-66
2022/04/22 08:06:37;;;;;;;;;;;15.00;54.50;;;;;;5103163;28;20195;-67
2022/04/22 08:09:02;;;;;;;;;;;15.00;54.40;;;;;;5103250;28;20014;-66
2022/04/22 08:11:28;;;;;;;;;;;15.00;54.50;;;;;;5103150;28;19908;-67
2022/04/22 08:13:55;;;;;;;;;;;15.00;54.50;;;;;;5103109;28;19908;-67
2022/04/22 08:16:20;;;;;;;;;;;15.00;54.40;;;;;;5103024;28;19900;-66
2022/04/22 08:18:46;;;;;;;;;;;15.00;54.40;;;;;;5103015;28;19900;-66
2022/04/22 08:21:11;;;;;;;;;;;15.00;54.40;;;;;;5102971;28;19935;-66
2022/04/22 08:23:37;;;;;;;;;;;15.00;54.50;;;;;;5102950;28;19934;-67
2022/04/22 08:26:04;;;;;;;;;;;15.00;54.50;;;;;;5102895;28;19915;-67
2022/04/22 08:28:29;;;;;;;;;;;15.00;54.50;;;;;;5102666;28;20230;-67
2022/04/22 08:30:55;;;;;;;;;;;15.00;54.50;;;;;;5102851;28;19900;-66
2022/04/22 08:33:21;;;;;;;;;;;15.00;54.50;;;;;;5102718;28;20156;-67
2022/04/22 08:35:46;;;;;;;;;;;15.00;54.50;;;;;;5102721;28;19900;-67
2022/04/22 08:38:12;;;;;;;;;;;15.00;54.50;;;;;;5102671;28;20096;-66
2022/04/22 08:40:38;;;;;;;;;;;15.00;54.40;;;;;;5102595;28;20252;-66
2022/04/22 08:43:04;;;;;;;;;;;15.00;54.40;;;;;;5102536;28;19915;-66
2022/04/22 08:45:29;;;;;;;;;;;15.00;54.40;;;;;;5102443;28;19908;-67
2022/04/22 08:50:41;;;;;;;;;;;15.00;54.50;;;;;;5102315;28;19946;-67
2022/04/22 08:53:07;;;;;;;;;;;15.00;54.50;;;;;;5102440;28;19953;-67
2022/04/22 08:55:33;;;;;;;;;;;15.00;54.50;;;;;;5102346;28;19974;-66
2022/04/22 08:58:06;;;;;;;;;;;15.00;54.50;;;;;;5102006;28;19943;-67
2022/04/22 09:00:35;;;;;;;;;;;15.00;54.50;;;;;;5102278;28;19911;-66
2022/04/22 09:03:00;;;;;;;;;;;15.00;54.50;;;;;;5102126;28;20127;-66
2022/04/22 09:05:26;;;;;;;;;;;15.00;54.50;;;;;;5102260;28;19900;-66
2022/04/22 09:07:52;;;;;;;;;;;15.00;54.50;;;;;;5102221;28;19911;-67
2022/04/22 09:10:19;;;;;;;;;;;15.00;54.50;;;;;;5102084;28;19915;-66
2022/04/22 09:12:52;;;;;;;;;;;15.00;54.40;;;;;;5102060;28;19914;-67
2022/04/22 09:15:21;;;;;;;;;;;15.00;54.40;;;;;;5101357;28;20181;-68
2022/04/22 09:17:47;;;;;;;;;;;15.00;54.40;;;;;;5101855;28;19900;-67
2022/04/22 09:20:14;;;;;;;;;;;15.00;54.50;;;;;;5101877;28;19983;-68
2022/04/22 09:22:40;;;;;;;;;;;15.00;54.40;;;;;;5101789;28;19915;-66
2022/04/22 09:25:06;;;;;;;;;;;15.00;54.40;;;;;;5101798;28;19900;-66
2022/04/22 09:27:41;;;;;;;;;;;15.00;54.40;;;;;;5101592;28;19904;-67
2022/04/22 09:30:09;;;;;;;;;;;15.00;54.30;;;;;;5101668;28;19900;-67
2022/04/22 09:32:37;;;;;;;;;;;15.00;54.40;;;;;;5101696;28;19954;-68
2022/04/22 09:35:07;;;;;;;;;;;15.00;54.30;;;;;;5101593;28;20017;-66
2022/04/22 09:43:01;;;;;;;;;;;15.10;54.30;;;;;;5101431;28;19907;-67
2022/04/22 09:45:37;;;;;;;;;;;15.10;54.30;;;;;;5101409;28;19900;-66
2022/04/22 09:48:11;;;;;;;;;;;15.00;54.20;;;;;;5101330;28;19911;-66
2022/04/22 09:50:43;;;;;;;;;;;15.10;54.30;;;;;;5101332;28;20192;-66
2022/04/22 09:53:10;;;;;;;;;;;15.10;54.40;;;;;;5101289;28;19939;-67
2022/04/22 09:55:49;;;;;;;;;;;15.00;54.40;;;;;;5101225;28;19950;-66
2022/04/22 09:58:24;;;;;;;;;;;15.00;54.40;;;;;;5100984;28;20159;-66
2022/04/22 10:01:00;;;;;;;;;;;15.00;54.40;;;;;;5101079;28;19931;-67
2022/04/22 10:03:33;;;;;;;;;;;15.00;54.60;;;;;;5099964;28;20068;-66
2022/04/22 10:06:01;;;;;;;;;;;15.00;54.60;;;;;;5100975;28;19908;-67
2022/04/22 10:08:30;;;;;;;;;;;15.00;54.60;;;;;;5100958;28;19974;-66
2022/04/22 10:10:57;;;;;;;;;;;15.00;54.60;;;;;;5100966;28;19900;-66
2022/04/22 10:13:25;;;;;;;;;;;15.00;54.60;;;;;;5100887;28;19930;-67
2022/04/22 10:15:51;;;;;;;;;;;15.00;54.70;;;;;;5100792;28;19907;-66
2022/04/22 10:18:17;;;;;;;;;;;15.00;54.60;;;;;;5100829;28;19900;-66
2022/04/22 10:20:46;;;;;;;;;;;15.00;54.50;;;;;;5100747;28;19930;-66
2022/04/22 10:23:12;;;;;;;;;;;15.00;55.20;;;;;;5100677;28;20203;-66
2022/04/22 10:25:38;;;;;;;;;;;15.00;54.50;;;;;;5100694;28;19908;-67
2022/04/22 10:28:05;;;;;;;;;;;15.00;54.60;;;;;;5099685;28;19912;-66
2022/04/22 10:30:31;;;;;;;;;;;15.00;54.60;;;;;;5100572;28;19907;-66
2022/04/22 10:32:57;;;;;;;;;;;15.00;54.60;;;;;;5100580;28;20008;-66
2022/04/22 10:35:23;;;;;;;;;;;15.00;54.60;;;;;;5100452;28;19946;-66
2022/04/22 10:37:49;;;;;;;;;;;15.00;54.60;;;;;;5100491;28;19915;-68
2022/04/22 10:40:19;;;;;;;;;;;15.00;54.50;;;;;;5100459;28;19915;-66
2022/04/22 10:42:45;;;;;;;;;;;15.00;54.50;;;;;;5100449;28;19943;-67
2022/04/22 10:47:55;;;;;;;;;;;15.00;54.60;;;;;;5100297;28;19942;-67
2022/04/22 10:50:31;;;;;;;;;;;15.00;54.50;;;;;;5100219;28;19900;-66
2022/04/22 10:53:02;;;;;;;;;;;15.00;54.50;;;;;;5100324;28;19904;-66
2022/04/22 10:55:30;;;;;;;;;;;15.00;54.50;;;;;;5100247;28;20138;-67
2022/04/22 10:58:14;;;;;;;;;;;15.00;54.50;;;;;;5100082;28;19918;-66
2022/04/22 11:00:41;;;;;;;;;;;15.00;54.50;;;;;;5100090;28;19908;-67
2022/04/22 11:03:14;;;;;;;;;;;15.00;54.60;;;;;;5100152;28;19907;-67
2022/04/22 11:05:44;;;;;;;;;;;15.00;54.60;;;;;;5100065;28;20199;-67
2022/04/22 11:08:17;;;;;;;;;;;15.00;54.50;;;;;;5099935;28;19912;-67
2022/04/22 11:10:45;;;;;;;;;;;15.00;54.60;;;;;;5100055;28;19908;-66
2022/04/22 11:13:40;;;;;;;;;;;15.00;54.50;;;;;;5099945;28;19908;-66
2022/04/22 11:16:15;;;;;;;;;;;15.00;54.50;;;;;;5090798;28;19907;-67
2022/04/22 11:18:41;;;;;;;;;;;15.00;54.60;;;;;;5099963;28;19907;-66
2022/04/22 11:21:11;;;;;;;;;;;15.00;54.70;;;;;;5099883;28;19899;-67
2022/04/22 11:23:37;;;;;;;;;;;15.00;54.60;;;;;;5099984;28;19900;-66
2022/04/22 11:26:04;;;;;;;;;;;15.00;54.60;;;;;;5099898;28;19908;-68
2022/04/22 11:28:36;;;;;;;;;;;15.00;54.60;;;;;;5099774;28;19995;-67
2022/04/22 11:31:03;;;;;;;;;;;15.00;54.70;;;;;;5099828;28;19938;-66
2022/04/22 11:33:34;;;;;;;;;;;15.00;54.60;;;;;;5099828;28;19912;-67
2022/04/22 11:36:03;;;;;;;;;;;15.00;54.60;;;;;;5099712;28;19908;-67
2022/04/22 11:38:28;;;;;;;;;;;15.00;54.50;;;;;;5100513;28;19915;-67
2022/04/22 11:40:54;;;;;;;;;;;15.00;54.70;;;;;;5103979;28;19931;-67
2022/04/22 11:43:21;;;;;;;;;;;15.00;54.60;;;;;;5103616;28;19943;-67
2022/04/22 11:45:47;;;;;;;;;;;15.00;54.60;;;;;;5103832;28;19945;-66
2022/04/22 11:48:14;;;;;;;;;;;15.00;54.60;;;;;;5103464;28;19912;-66
2022/04/22 11:50:42;;;;;;;;;;;15.00;54.50;;;;;;5103534;28;19911;-67
2022/04/22 11:53:18;;;;;;;;;;;15.00;54.60;;;;;;5103543;28;20006;-67
2022/04/22 11:55:44;;;;;;;;;;;15.00;54.60;;;;;;5103431;28;19908;-67
2022/04/22 11:58:09;;;;;;;;;;;15.00;54.60;;;;;;5103213;28;20207;-67
2022/04/22 12:06:06;;;;;;;;;;;15.00;54.70;;;;;;5103266;28;19922;-66
2022/04/22 12:08:32;;;;;;;;;;;15.00;54.70;;;;;;5103061;28;20223;-66
2022/04/22 12:10:58;;;;;;;;;;;15.00;54.60;;;;;;5103146;28;19908;-67
2022/04/22 12:13:24;;;;;;;;;;;15.00;54.60;;;;;;5103161;28;20243;-67
2022/04/22 12:15:50;;;;;;;;;;;15.00;54.60;;;;;;5103088;28;19991;-66
2022/04/22 12:18:28;;;;;;;;;;;15.00;54.50;;;;;;5102992;28;19900;-67
2022/04/22 12:20:54;;;;;;;;;;;15.00;54.50;;;;;;5102996;28;20255;-66
2022/04/22 12:23:21;;;;;;;;;;;15.00;54.50;;;;;;5102862;28;19957;-67
2022/04/22 12:25:55;;;;;;;;;;;15.00;54.50;;;;;;5102918;28;19906;-66
2022/04/22 12:28:22;;;;;;;;;;;15.00;54.50;;;;;;5102616;28;19904;-66
2022/04/22 12:30:47;;;;;;;;;;;15.00;54.50;;;;;;5102782;28;20077;-66
2022/04/22 12:33:21;;;;;;;;;;;15.10;54.60;;;;;;5102691;28;19908;-68
2022/04/22 12:35:49;;;;;;;;;;;15.10;54.50;;;;;;5102718;28;20095;-66
2022/04/22 12:38:15;;;;;;;;;;;15.10;54.40;;;;;;5102641;28;19948;-67
2022/04/22 12:40:45;;;;;;;;;;;15.10;54.30;;;;;;5102789;28;19915;-66
2022/04/22 12:43:26;;;;;;;;;;;15.10;54.30;;;;;;5102382;28;19900;-66
2022/04/22 12:54:13;;;;;;;;;;;15.10;54.30;;;;;;5102240;28;20211;-66
2022/04/22 12:56:38;;;;;;;;;;;15.10;54.40;;;;;;5102240;28;19908;-67
2022/04/22 12:59:07;;;;;;;;;;;15.10;54.40;;;;;;5102188;28;20012;-67
2022/04/22 13:01:37;;;;;;;;;;;15.10;54.40;;;;;;5102162;28;19908;-67
2022/04/22 13:04:03;;;;;;;;;;;15.10;54.40;;;;;;5102078;28;19942;-66
2022/04/22 13:06:35;;;;;;;;;;;15.10;54.50;;;;;;5102219;28;19975;-68
2022/04/22 13:09:00;;;;;;;;;;;15.10;54.50;;;;;;5101981;28;19974;-67
2022/04/22 13:11:26;;;;;;;;;;;15.10;54.50;;;;;;5101968;28;19900;-66
2022/04/22 13:13:51;;;;;;;;;;;15.10;54.50;;;;;;5101874;28;19908;-66
2022/04/22 13:16:17;;;;;;;;;;;15.10;54.50;;;;;;5101828;28;19970;-67
2022/04/22 13:18:42;;;;;;;;;;;15.10;54.60;;;;;;5101796;28;19912;-66
2022/04/22 13:21:08;;;;;;;;;;;15.10;54.60;;;;;;5101786;28;19907;-67
2022/04/22 13:23:33;;;;;;;;;;;15.10;54.70;;;;;;5101695;28;19908;-67
2022/04/22 13:25:59;;;;;;;;;;;15.10;54.70;;;;;;5101857;28;19912;-67
2022/04/22 13:28:25;;;;;;;;;;;15.00;54.70;;;;;;5101513;28;19962;-67
2022/04/22 13:30:50;;;;;;;;;;;15.10;54.80;;;;;;5101520;28;19907;-66
2022/04/22 13:33:16;;;;;;;;;;;15.10;54.80;;;;;;5101570;28;19907;-67
2022/04/22 13:35:42;;;;;;;;;;;15.10;54.70;;;;;;5101457;28;19927;-67
2022/04/22 13:38:07;;;;;;;;;;;15.00;54.70;;;;;;5101471;28;20207;-67
2022/04/22 13:40:33;;;;;;;;;;;15.10;54.70;;;;;;5100108;28;19941;-66
2022/04/22 13:42:58;;;;;;;;;;;15.10;54.70;;;;;;5101309;28;19928;-66
2022/04/22 13:53:36;;;;;;;;;;;15.10;54.70;;;;;;5101147;28;20140;-66
2022/04/22 13:56:02;;;;;;;;;;;15.10;54.70;;;;;;5101030;28;19900;-66
2022/04/22 13:58:27;;;;;;;;;;;15.10;54.80;;;;;;5100905;28;20423;-66
2022/04/22 14:00:53;;;;;;;;;;;15.10;54.80;;;;;;5100978;28;19915;-67
2022/04/22 14:03:19;;;;;;;;;;;15.10;54.70;;;;;;5100781;28;19908;-67
2022/04/22 14:05:45;;;;;;;;;;;15.10;54.80;;;;;;5100905;28;19910;-67
2022/04/22 14:08:11;;;;;;;;;;;15.10;54.80;;;;;;5100736;28;19962;-66
2022/04/22 14:10:37;;;;;;;;;;;15.00;54.80;;;;;;5100853;28;19927;-67
2022/04/22 14:13:03;;;;;;;;;;;15.10;54.80;;;;;;5100784;28;20253;-67
2022/04/22 14:15:28;;;;;;;;;;;15.10;54.80;;;;;;5100731;28;19907;-68
2022/04/22 14:17:54;;;;;;;;;;;15.10;54.80;;;;;;5100695;28;19916;-67
2022/04/22 14:20:19;;;;;;;;;;;15.10;54.80;;;;;;5100652;28;20004;-67
2022/04/22 14:22:45;;;;;;;;;;;15.10;54.80;;;;;;5100621;28;19908;-67
2022/04/22 14:25:11;;;;;;;;;;;15.10;54.80;;;;;;5100424;28;19962;-66
2022/04/22 14:27:36;;;;;;;;;;;15.10;54.70;;;;;;5100505;28;19971;-66
2022/04/22 14:30:02;;;;;;;;;;;15.10;54.70;;;;;;5099147;28;19915;-67
2022/04/22 14:32:28;;;;;;;;;;;15.10;54.70;;;;;;5100434;28;19991;-67
2022/04/22 14:34:53;;;;;;;;;;;15.10;54.70;;;;;;5100398;28;19907;-66
2022/04/22 14:37:19;;;;;;;;;;;15.10;54.70;;;;;;5100407;28;19915;-67
2022/04/22 14:39:45;;;;;;;;;;;15.10;54.70;;;;;;5100348;28;19908;-66
2022/04/22 14:42:10;;;;;;;;;;;15.10;54.70;;;;;;5100201;28;19938;-66
2022/04/22 14:44:36;;;;;;;;;;;15.10;54.70;;;;;;5100288;28;19938;-67
2022/04/22 14:47:02;;;;;;;;;;;15.10;54.70;;;;;;5100162;28;19966;-67
2022/04/22 14:49:27;;;;;;;;;;;15.10;54.80;;;;;;5100224;28;19907;-66
2022/04/22 14:51:54;;;;;;;;;;;15.00;54.80;;;;;;5100193;28;19908;-67
2022/04/22 14:54:20;;;;;;;;;;;15.10;54.80;;;;;;5100117;28;19908;-67
2022/04/22 14:56:45;;;;;;;;;;;15.00;54.80;;;;;;5100127;28;19900;-67
2022/04/22 14:59:11;;;;;;;;;;;15.00;54.90;;;;;;5099867;28;19912;-67
2022/04/22 15:01:37;;;;;;;;;;;15.10;54.90;;;;;;5100097;28;20096;-66
2022/04/22 15:04:02;;;;;;;;;;;15.00;54.80;;;;;;5099996;28;19912;-66
2022/04/22 15:06:28;;;;;;;;;;;15.00;54.90;;;;;;5099986;28;19908;-66
2022/04/22 15:08:54;;;;;;;;;;;15.10;54.90;;;;;;5100002;28;19908;-67
2022/04/22 15:11:20;;;;;;;;;;;15.00;54.90;;;;;;5099926;28;19912;-66
2022/04/22 15:13:46;;;;;;;;;;;15.00;54.90;;;;;;5101400;28;19941;-67
2022/04/22 15:16:11;;;;;;;;;;;15.00;54.90;;;;;;5104103;28;19904;-66
2022/04/22 15:24:13;;;;;;;;;;;15.00;54.90;;;;;;5103966;28;19982;-67
2022/04/22 15:26:41;;;;;;;;;;;15.00;54.90;;;;;;5103862;28;19950;-67
2022/04/22 15:29:07;;;;;;;;;;;15.00;54.90;;;;;;5103951;28;19937;-66
2022/04/22 15:31:32;;;;;;;;;;;15.00;54.90;;;;;;5102568;28;19904;-66
2022/04/22 15:33:58;;;;;;;;;;;15.00;54.90;;;;;;5103758;28;19930;-67